Monponsett, Massachusetts
Current Conditions -  °F | °C
As of 2:52 PM on Monday 24 Nov 2014 (Local Time) from KPYM Reporting Station
Light Rain Light Rain  
Wind Chill: 63°   Ceiling: 600
Heat Index: 63°   Visibility: 4mi
Dew Point: 62°   Wind: 18mph
Humidity: 97%   Direction: 210°SSW
Pressure: 29.66"   Gusts: 36mph
Location:  42.02°N, 70.85°W
Report Text: KPYM 241952Z AUTO 21016G31KT 4SM -RA BR OVC006 17/17 A2966 RMK AO2 PK WND 19034/1906 SLP044 P0000 T01720167
Loading
Personal Weather Stations






























Interactive Weather Map New forecast layout! Learn more

10-Day Weather Forecast

Advertisements
Track Severe Weather on mobile